sensor_id;sensor_type;location;lat;lon;timestamp;P1;durP1;ratioP1;P2;durP2;ratioP2
7525;SDS011;3804;50.860;6.208;2023-03-01T00:02:01;16.50;;;10.37;;
7525;SDS011;3804;50.860;6.208;2023-03-01T00:04:28;16.40;;;10.73;;
7525;SDS011;3804;50.860;6.208;2023-03-01T00:06:55;15.23;;;10.93;;
7525;SDS011;3804;50.860;6.208;2023-03-01T00:09:22;15.43;;;10.87;;
7525;SDS011;3804;50.860;6.208;2023-03-01T00:11:49;13.53;;;10.50;;
7525;SDS011;3804;50.860;6.208;2023-03-01T00:14:15;14.67;;;10.20;;
7525;SDS011;3804;50.860;6.208;2023-03-01T00:16:45;13.77;;;9.73;;
7525;SDS011;3804;50.860;6.208;2023-03-01T00:19:13;17.20;;;10.13;;
7525;SDS011;3804;50.860;6.208;2023-03-01T00:21:40;15.07;;;10.10;;
7525;SDS011;3804;50.860;6.208;2023-03-01T00:24:08;13.63;;;10.00;;
7525;SDS011;3804;50.860;6.208;2023-03-01T00:26:34;14.17;;;10.13;;
7525;SDS011;3804;50.860;6.208;2023-03-01T00:29:01;14.23;;;9.73;;
7525;SDS011;3804;50.860;6.208;2023-03-01T00:31:28;14.70;;;10.30;;
7525;SDS011;3804;50.860;6.208;2023-03-01T00:33:57;14.37;;;10.07;;
7525;SDS011;3804;50.860;6.208;2023-03-01T00:36:31;15.27;;;10.63;;
7525;SDS011;3804;50.860;6.208;2023-03-01T00:38:59;13.40;;;9.37;;
7525;SDS011;3804;50.860;6.208;2023-03-01T00:41:26;14.63;;;10.57;;
7525;SDS011;3804;50.860;6.208;2023-03-01T00:43:53;17.17;;;11.03;;
7525;SDS011;3804;50.860;6.208;2023-03-01T00:46:21;16.83;;;11.10;;
7525;SDS011;3804;50.860;6.208;2023-03-01T00:48:48;14.57;;;10.43;;
7525;SDS011;3804;50.860;6.208;2023-03-01T00:51:20;16.20;;;11.53;;
7525;SDS011;3804;50.860;6.208;2023-03-01T00:53:49;21.47;;;13.37;;
7525;SDS011;3804;50.860;6.208;2023-03-01T00:56:16;20.63;;;13.57;;
7525;SDS011;3804;50.860;6.208;2023-03-01T00:58:43;18.23;;;12.17;;
7525;SDS011;3804;50.860;6.208;2023-03-01T01:01:15;18.23;;;12.57;;
7525;SDS011;3804;50.860;6.208;2023-03-01T01:06:16;19.63;;;12.03;;
7525;SDS011;3804;50.860;6.208;2023-03-01T01:08:43;19.43;;;12.33;;
7525;SDS011;3804;50.860;6.208;2023-03-01T01:11:11;19.00;;;12.43;;
7525;SDS011;3804;50.860;6.208;2023-03-01T01:13:38;20.97;;;12.77;;
7525;SDS011;3804;50.860;6.208;2023-03-01T01:16:06;22.00;;;12.33;;
7525;SDS011;3804;50.860;6.208;2023-03-01T01:18:33;17.10;;;11.77;;
7525;SDS011;3804;50.860;6.208;2023-03-01T01:21:04;16.80;;;11.53;;
7525;SDS011;3804;50.860;6.208;2023-03-01T01:23:31;16.40;;;10.73;;
7525;SDS011;3804;50.860;6.208;2023-03-01T01:26:02;17.47;;;11.07;;
7525;SDS011;3804;50.860;6.208;2023-03-01T01:28:29;19.50;;;11.33;;
7525;SDS011;3804;50.860;6.208;2023-03-01T01:30:56;14.40;;;11.03;;
7525;SDS011;3804;50.860;6.208;2023-03-01T01:33:23;20.80;;;12.73;;
7525;SDS011;3804;50.860;6.208;2023-03-01T01:35:50;17.13;;;11.93;;
7525;SDS011;3804;50.860;6.208;2023-03-01T01:38:16;18.77;;;11.73;;
7525;SDS011;3804;50.860;6.208;2023-03-01T01:40:46;20.00;;;11.87;;
7525;SDS011;3804;50.860;6.208;2023-03-01T01:43:23;19.87;;;12.47;;
7525;SDS011;3804;50.860;6.208;2023-03-01T01:45:50;18.57;;;11.50;;
7525;SDS011;3804;50.860;6.208;2023-03-01T01:48:21;19.70;;;11.47;;
7525;SDS011;3804;50.860;6.208;2023-03-01T01:50:51;20.17;;;11.40;;
7525;SDS011;3804;50.860;6.208;2023-03-01T01:53:19;15.23;;;10.23;;
7525;SDS011;3804;50.860;6.208;2023-03-01T01:55:47;17.30;;;11.73;;
7525;SDS011;3804;50.860;6.208;2023-03-01T01:58:15;16.17;;;10.47;;
7525;SDS011;3804;50.860;6.208;2023-03-01T02:00:43;17.20;;;10.30;;
7525;SDS011;3804;50.860;6.208;2023-03-01T02:03:11;15.53;;;10.33;;
7525;SDS011;3804;50.860;6.208;2023-03-01T02:08:26;18.23;;;10.07;;
7525;SDS011;3804;50.860;6.208;2023-03-01T02:10:55;16.80;;;11.00;;
7525;SDS011;3804;50.860;6.208;2023-03-01T02:13:22;18.53;;;10.50;;
7525;SDS011;3804;50.860;6.208;2023-03-01T02:15:49;17.00;;;11.07;;
7525;SDS011;3804;50.860;6.208;2023-03-01T02:18:17;15.70;;;10.40;;
7525;SDS011;3804;50.860;6.208;2023-03-01T02:20:55;15.70;;;10.70;;
7525;SDS011;3804;50.860;6.208;2023-03-01T02:23:25;18.27;;;10.23;;
7525;SDS011;3804;50.860;6.208;2023-03-01T02:26:06;17.40;;;10.73;;
7525;SDS011;3804;50.860;6.208;2023-03-01T02:28:35;18.47;;;11.33;;
7525;SDS011;3804;50.860;6.208;2023-03-01T02:31:03;17.73;;;11.50;;
7525;SDS011;3804;50.860;6.208;2023-03-01T02:33:50;15.30;;;10.70;;
7525;SDS011;3804;50.860;6.208;2023-03-01T02:36:19;22.10;;;11.27;;
7525;SDS011;3804;50.860;6.208;2023-03-01T02:38:46;15.73;;;10.87;;
7525;SDS011;3804;50.860;6.208;2023-03-01T02:41:15;14.87;;;10.23;;
7525;SDS011;3804;50.860;6.208;2023-03-01T02:43:42;15.47;;;10.90;;
7525;SDS011;3804;50.860;6.208;2023-03-01T02:46:14;18.70;;;10.70;;
7525;SDS011;3804;50.860;6.208;2023-03-01T02:48:42;18.83;;;11.33;;
7525;SDS011;3804;50.860;6.208;2023-03-01T02:51:26;18.30;;;11.00;;
7525;SDS011;3804;50.860;6.208;2023-03-01T02:56:40;18.53;;;10.70;;
7525;SDS011;3804;50.860;6.208;2023-03-01T02:59:08;19.60;;;12.03;;
7525;SDS011;3804;50.860;6.208;2023-03-01T03:01:35;20.37;;;11.53;;
7525;SDS011;3804;50.860;6.208;2023-03-01T03:04:08;17.23;;;11.03;;
7525;SDS011;3804;50.860;6.208;2023-03-01T03:06:37;21.17;;;12.73;;
7525;SDS011;3804;50.860;6.208;2023-03-01T03:09:04;23.73;;;12.27;;
7525;SDS011;3804;50.860;6.208;2023-03-01T03:11:31;18.73;;;12.67;;
7525;SDS011;3804;50.860;6.208;2023-03-01T03:13:59;21.70;;;12.57;;
7525;SDS011;3804;50.860;6.208;2023-03-01T03:16:26;25.70;;;14.60;;
7525;SDS011;3804;50.860;6.208;2023-03-01T03:18:54;25.13;;;13.77;;
7525;SDS011;3804;50.860;6.208;2023-03-01T03:21:21;21.80;;;13.57;;
7525;SDS011;3804;50.860;6.208;2023-03-01T03:23:48;21.90;;;13.73;;
7525;SDS011;3804;50.860;6.208;2023-03-01T03:26:15;19.60;;;12.57;;
7525;SDS011;3804;50.860;6.208;2023-03-01T03:28:41;21.17;;;12.83;;
7525;SDS011;3804;50.860;6.208;2023-03-01T03:31:08;24.40;;;13.73;;
7525;SDS011;3804;50.860;6.208;2023-03-01T03:33:35;22.20;;;12.67;;
7525;SDS011;3804;50.860;6.208;2023-03-01T03:36:02;21.50;;;13.20;;
7525;SDS011;3804;50.860;6.208;2023-03-01T03:38:28;19.97;;;12.30;;
7525;SDS011;3804;50.860;6.208;2023-03-01T03:41:03;29.57;;;13.23;;
7525;SDS011;3804;50.860;6.208;2023-03-01T03:43:31;20.77;;;12.90;;
7525;SDS011;3804;50.860;6.208;2023-03-01T03:45:59;19.43;;;12.67;;
7525;SDS011;3804;50.860;6.208;2023-03-01T03:48:26;22.03;;;13.30;;
7525;SDS011;3804;50.860;6.208;2023-03-01T03:50:54;20.40;;;12.83;;
7525;SDS011;3804;50.860;6.208;2023-03-01T03:53:21;20.17;;;13.90;;
7525;SDS011;3804;50.860;6.208;2023-03-01T03:55:49;21.13;;;12.83;;
7525;SDS011;3804;50.860;6.208;2023-03-01T03:58:15;20.30;;;12.77;;
7525;SDS011;3804;50.860;6.208;2023-03-01T04:00:46;20.40;;;12.43;;
7525;SDS011;3804;50.860;6.208;2023-03-01T04:03:14;23.13;;;13.23;;
7525;SDS011;3804;50.860;6.208;2023-03-01T04:05:42;23.87;;;14.47;;
7525;SDS011;3804;50.860;6.208;2023-03-01T04:08:08;24.67;;;13.70;;
7525;SDS011;3804;50.860;6.208;2023-03-01T04:10:37;23.77;;;14.70;;
7525;SDS011;3804;50.860;6.208;2023-03-01T04:13:04;21.27;;;14.23;;
7525;SDS011;3804;50.860;6.208;2023-03-01T04:15:31;23.83;;;13.53;;
7525;SDS011;3804;50.860;6.208;2023-03-01T04:17:59;22.53;;;13.70;;
7525;SDS011;3804;50.860;6.208;2023-03-01T04:20:27;24.47;;;13.93;;
7525;SDS011;3804;50.860;6.208;2023-03-01T04:23:02;21.77;;;14.03;;
7525;SDS011;3804;50.860;6.208;2023-03-01T04:25:38;26.00;;;14.47;;
7525;SDS011;3804;50.860;6.208;2023-03-01T04:28:05;23.00;;;13.97;;
7525;SDS011;3804;50.860;6.208;2023-03-01T04:30:32;22.63;;;14.53;;
7525;SDS011;3804;50.860;6.208;2023-03-01T04:33:03;25.63;;;14.47;;
7525;SDS011;3804;50.860;6.208;2023-03-01T04:35:30;24.03;;;14.80;;
7525;SDS011;3804;50.860;6.208;2023-03-01T04:37:57;24.60;;;14.50;;
7525;SDS011;3804;50.860;6.208;2023-03-01T04:40:24;22.67;;;14.37;;
7525;SDS011;3804;50.860;6.208;2023-03-01T04:42:51;23.27;;;15.13;;
7525;SDS011;3804;50.860;6.208;2023-03-01T04:45:17;24.17;;;14.93;;
7525;SDS011;3804;50.860;6.208;2023-03-01T04:47:45;28.37;;;14.30;;
7525;SDS011;3804;50.860;6.208;2023-03-01T04:50:14;25.00;;;14.70;;
7525;SDS011;3804;50.860;6.208;2023-03-01T04:52:41;23.30;;;14.80;;
7525;SDS011;3804;50.860;6.208;2023-03-01T04:55:09;26.10;;;15.43;;
7525;SDS011;3804;50.860;6.208;2023-03-01T04:57:36;28.87;;;16.80;;
7525;SDS011;3804;50.860;6.208;2023-03-01T05:00:03;28.17;;;16.67;;
7525;SDS011;3804;50.860;6.208;2023-03-01T05:02:53;27.27;;;15.53;;
7525;SDS011;3804;50.860;6.208;2023-03-01T05:05:21;23.63;;;15.37;;
7525;SDS011;3804;50.860;6.208;2023-03-01T05:07:58;22.57;;;15.40;;
7525;SDS011;3804;50.860;6.208;2023-03-01T05:10:26;25.07;;;15.80;;
7525;SDS011;3804;50.860;6.208;2023-03-01T05:12:55;23.93;;;15.40;;
7525;SDS011;3804;50.860;6.208;2023-03-01T05:15:24;23.83;;;15.57;;
7525;SDS011;3804;50.860;6.208;2023-03-01T05:17:52;27.30;;;16.20;;
7525;SDS011;3804;50.860;6.208;2023-03-01T05:20:21;26.37;;;15.97;;
7525;SDS011;3804;50.860;6.208;2023-03-01T05:22:54;25.57;;;16.20;;
7525;SDS011;3804;50.860;6.208;2023-03-01T05:25:21;26.27;;;16.27;;
7525;SDS011;3804;50.860;6.208;2023-03-01T05:27:48;27.07;;;16.83;;
7525;SDS011;3804;50.860;6.208;2023-03-01T05:30:15;25.23;;;16.43;;
7525;SDS011;3804;50.860;6.208;2023-03-01T05:32:46;26.13;;;16.20;;
7525;SDS011;3804;50.860;6.208;2023-03-01T05:35:13;25.83;;;16.03;;
7525;SDS011;3804;50.860;6.208;2023-03-01T05:37:43;27.00;;;16.03;;
7525;SDS011;3804;50.860;6.208;2023-03-01T05:40:11;22.87;;;15.30;;
7525;SDS011;3804;50.860;6.208;2023-03-01T05:42:42;28.10;;;15.90;;
7525;SDS011;3804;50.860;6.208;2023-03-01T05:45:09;26.40;;;16.10;;
7525;SDS011;3804;50.860;6.208;2023-03-01T05:47:36;24.97;;;15.87;;
7525;SDS011;3804;50.860;6.208;2023-03-01T05:50:03;25.70;;;16.33;;
7525;SDS011;3804;50.860;6.208;2023-03-01T05:52:30;25.97;;;16.53;;
7525;SDS011;3804;50.860;6.208;2023-03-01T05:54:56;25.57;;;16.93;;
7525;SDS011;3804;50.860;6.208;2023-03-01T05:57:23;29.37;;;17.13;;
7525;SDS011;3804;50.860;6.208;2023-03-01T05:59:50;24.53;;;16.97;;
7525;SDS011;3804;50.860;6.208;2023-03-01T06:02:16;25.13;;;17.37;;
7525;SDS011;3804;50.860;6.208;2023-03-01T06:04:43;23.80;;;15.30;;
7525;SDS011;3804;50.860;6.208;2023-03-01T06:07:10;25.03;;;16.50;;
7525;SDS011;3804;50.860;6.208;2023-03-01T06:09:38;25.47;;;17.17;;
7525;SDS011;3804;50.860;6.208;2023-03-01T06:12:04;25.87;;;16.10;;
7525;SDS011;3804;50.860;6.208;2023-03-01T06:14:31;24.13;;;15.63;;
7525;SDS011;3804;50.860;6.208;2023-03-01T06:16:58;28.83;;;16.57;;
7525;SDS011;3804;50.860;6.208;2023-03-01T06:19:25;27.37;;;16.13;;
7525;SDS011;3804;50.860;6.208;2023-03-01T06:21:52;25.97;;;16.63;;
7525;SDS011;3804;50.860;6.208;2023-03-01T06:24:19;27.30;;;16.43;;
7525;SDS011;3804;50.860;6.208;2023-03-01T06:26:46;27.17;;;16.70;;
7525;SDS011;3804;50.860;6.208;2023-03-01T06:29:12;25.90;;;15.60;;
7525;SDS011;3804;50.860;6.208;2023-03-01T06:31:41;23.57;;;17.47;;
7525;SDS011;3804;50.860;6.208;2023-03-01T06:34:07;28.93;;;16.30;;
7525;SDS011;3804;50.860;6.208;2023-03-01T06:36:34;47.60;;;23.67;;
7525;SDS011;3804;50.860;6.208;2023-03-01T06:39:01;32.00;;;18.43;;
7525;SDS011;3804;50.860;6.208;2023-03-01T06:41:28;32.83;;;17.90;;
7525;SDS011;3804;50.860;6.208;2023-03-01T06:43:55;27.83;;;18.07;;
7525;SDS011;3804;50.860;6.208;2023-03-01T06:46:21;30.07;;;16.53;;
7525;SDS011;3804;50.860;6.208;2023-03-01T06:48:48;29.13;;;17.33;;
7525;SDS011;3804;50.860;6.208;2023-03-01T06:51:18;30.50;;;18.27;;
7525;SDS011;3804;50.860;6.208;2023-03-01T06:53:45;30.17;;;17.33;;
7525;SDS011;3804;50.860;6.208;2023-03-01T06:56:12;26.30;;;16.80;;
7525;SDS011;3804;50.860;6.208;2023-03-01T06:58:39;33.60;;;18.50;;
7525;SDS011;3804;50.860;6.208;2023-03-01T07:01:09;31.93;;;18.33;;
7525;SDS011;3804;50.860;6.208;2023-03-01T07:03:36;29.17;;;18.00;;
7525;SDS011;3804;50.860;6.208;2023-03-01T07:06:03;28.73;;;17.70;;
7525;SDS011;3804;50.860;6.208;2023-03-01T07:08:30;29.90;;;17.57;;
7525;SDS011;3804;50.860;6.208;2023-03-01T07:10:58;31.23;;;18.03;;
7525;SDS011;3804;50.860;6.208;2023-03-01T07:13:25;30.87;;;18.53;;
7525;SDS011;3804;50.860;6.208;2023-03-01T07:15:52;32.87;;;18.87;;
7525;SDS011;3804;50.860;6.208;2023-03-01T07:18:19;28.33;;;17.83;;
7525;SDS011;3804;50.860;6.208;2023-03-01T07:20:45;28.73;;;17.80;;
7525;SDS011;3804;50.860;6.208;2023-03-01T07:23:12;33.37;;;18.23;;
7525;SDS011;3804;50.860;6.208;2023-03-01T07:25:39;30.67;;;18.23;;
7525;SDS011;3804;50.860;6.208;2023-03-01T07:28:05;29.87;;;17.60;;
7525;SDS011;3804;50.860;6.208;2023-03-01T07:30:32;33.30;;;18.40;;
7525;SDS011;3804;50.860;6.208;2023-03-01T07:32:59;28.70;;;18.17;;
7525;SDS011;3804;50.860;6.208;2023-03-01T07:35:26;30.53;;;18.80;;
7525;SDS011;3804;50.860;6.208;2023-03-01T07:37:53;38.97;;;19.17;;
7525;SDS011;3804;50.860;6.208;2023-03-01T07:40:20;33.70;;;19.23;;
7525;SDS011;3804;50.860;6.208;2023-03-01T07:42:46;34.20;;;20.70;;
7525;SDS011;3804;50.860;6.208;2023-03-01T07:45:13;33.20;;;22.20;;
7525;SDS011;3804;50.860;6.208;2023-03-01T07:47:40;30.73;;;20.33;;
7525;SDS011;3804;50.860;6.208;2023-03-01T07:50:06;28.83;;;19.13;;
7525;SDS011;3804;50.860;6.208;2023-03-01T07:52:33;21.80;;;15.83;;
7525;SDS011;3804;50.860;6.208;2023-03-01T07:55:00;23.63;;;15.00;;
7525;SDS011;3804;50.860;6.208;2023-03-01T07:57:27;20.10;;;12.87;;
7525;SDS011;3804;50.860;6.208;2023-03-01T07:59:53;18.40;;;11.87;;
7525;SDS011;3804;50.860;6.208;2023-03-01T08:02:20;17.80;;;11.33;;
7525;SDS011;3804;50.860;6.208;2023-03-01T08:04:46;18.30;;;11.10;;
7525;SDS011;3804;50.860;6.208;2023-03-01T08:07:13;17.43;;;11.27;;
7525;SDS011;3804;50.860;6.208;2023-03-01T08:09:40;17.13;;;11.23;;
7525;SDS011;3804;50.860;6.208;2023-03-01T08:12:07;18.53;;;11.63;;
7525;SDS011;3804;50.860;6.208;2023-03-01T08:14:33;18.33;;;12.03;;
7525;SDS011;3804;50.860;6.208;2023-03-01T08:17:00;17.97;;;12.77;;
7525;SDS011;3804;50.860;6.208;2023-03-01T08:19:29;21.90;;;13.10;;
7525;SDS011;3804;50.860;6.208;2023-03-01T08:21:55;21.10;;;14.30;;
7525;SDS011;3804;50.860;6.208;2023-03-01T08:24:24;20.00;;;13.80;;
7525;SDS011;3804;50.860;6.208;2023-03-01T08:26:51;21.17;;;14.00;;
7525;SDS011;3804;50.860;6.208;2023-03-01T08:29:18;19.77;;;13.30;;
7525;SDS011;3804;50.860;6.208;2023-03-01T08:31:44;25.10;;;13.77;;
7525;SDS011;3804;50.860;6.208;2023-03-01T08:34:12;23.40;;;14.07;;
7525;SDS011;3804;50.860;6.208;2023-03-01T08:36:40;20.07;;;12.10;;
7525;SDS011;3804;50.860;6.208;2023-03-01T08:39:08;22.90;;;13.90;;
7525;SDS011;3804;50.860;6.208;2023-03-01T08:41:34;21.80;;;13.67;;
7525;SDS011;3804;50.860;6.208;2023-03-01T08:44:02;21.50;;;13.00;;
7525;SDS011;3804;50.860;6.208;2023-03-01T08:46:29;27.23;;;14.23;;
7525;SDS011;3804;50.860;6.208;2023-03-01T08:48:57;20.73;;;12.93;;
7525;SDS011;3804;50.860;6.208;2023-03-01T08:51:24;22.90;;;14.00;;
7525;SDS011;3804;50.860;6.208;2023-03-01T08:53:51;22.07;;;13.60;;
7525;SDS011;3804;50.860;6.208;2023-03-01T08:56:18;20.53;;;13.90;;
7525;SDS011;3804;50.860;6.208;2023-03-01T08:58:46;18.90;;;10.07;;
7525;SDS011;3804;50.860;6.208;2023-03-01T09:01:14;19.97;;;11.60;;
7525;SDS011;3804;50.860;6.208;2023-03-01T09:03:41;22.10;;;12.83;;
7525;SDS011;3804;50.860;6.208;2023-03-01T09:06:08;18.27;;;10.33;;
7525;SDS011;3804;50.860;6.208;2023-03-01T09:08:35;14.00;;;9.43;;
7525;SDS011;3804;50.860;6.208;2023-03-01T09:11:03;20.20;;;12.20;;
7525;SDS011;3804;50.860;6.208;2023-03-01T09:13:29;18.47;;;11.33;;
7525;SDS011;3804;50.860;6.208;2023-03-01T09:15:57;23.63;;;11.20;;
7525;SDS011;3804;50.860;6.208;2023-03-01T09:18:24;17.40;;;10.80;;
7525;SDS011;3804;50.860;6.208;2023-03-01T09:20:51;20.13;;;11.33;;
7525;SDS011;3804;50.860;6.208;2023-03-01T09:23:17;18.27;;;11.07;;
7525;SDS011;3804;50.860;6.208;2023-03-01T09:25:44;18.50;;;12.27;;
7525;SDS011;3804;50.860;6.208;2023-03-01T09:28:11;18.13;;;12.73;;
7525;SDS011;3804;50.860;6.208;2023-03-01T09:30:57;16.33;;;10.27;;
7525;SDS011;3804;50.860;6.208;2023-03-01T09:33:24;20.90;;;11.60;;
7525;SDS011;3804;50.860;6.208;2023-03-01T09:35:55;15.20;;;9.37;;
7525;SDS011;3804;50.860;6.208;2023-03-01T09:38:22;18.60;;;11.40;;
7525;SDS011;3804;50.860;6.208;2023-03-01T09:40:52;15.43;;;10.00;;
7525;SDS011;3804;50.860;6.208;2023-03-01T09:45:52;21.07;;;11.70;;
7525;SDS011;3804;50.860;6.208;2023-03-01T09:48:21;14.23;;;9.73;;
7525;SDS011;3804;50.860;6.208;2023-03-01T09:50:50;13.27;;;7.33;;
7525;SDS011;3804;50.860;6.208;2023-03-01T09:53:18;13.63;;;9.87;;
7525;SDS011;3804;50.860;6.208;2023-03-01T10:00:53;15.73;;;9.93;;
7525;SDS011;3804;50.860;6.208;2023-03-01T10:03:26;15.23;;;9.60;;
7525;SDS011;3804;50.860;6.208;2023-03-01T10:05:56;16.07;;;10.20;;
7525;SDS011;3804;50.860;6.208;2023-03-01T10:08:27;17.00;;;10.77;;
7525;SDS011;3804;50.860;6.208;2023-03-01T10:10:55;15.80;;;8.73;;
7525;SDS011;3804;50.860;6.208;2023-03-01T10:13:38;17.73;;;10.03;;
7525;SDS011;3804;50.860;6.208;2023-03-01T10:16:13;12.90;;;8.97;;
7525;SDS011;3804;50.860;6.208;2023-03-01T10:18:40;17.53;;;10.57;;
7525;SDS011;3804;50.860;6.208;2023-03-01T10:23:34;13.47;;;8.40;;
7525;SDS011;3804;50.860;6.208;2023-03-01T10:26:48;11.43;;;8.13;;
7525;SDS011;3804;50.860;6.208;2023-03-01T10:31:18;14.40;;;9.50;;
7525;SDS011;3804;50.860;6.208;2023-03-01T10:33:46;17.73;;;8.47;;
7525;SDS011;3804;50.860;6.208;2023-03-01T10:36:17;14.27;;;9.33;;
7525;SDS011;3804;50.860;6.208;2023-03-01T10:38:48;9.93;;;7.77;;
7525;SDS011;3804;50.860;6.208;2023-03-01T10:41:16;13.53;;;8.70;;
7525;SDS011;3804;50.860;6.208;2023-03-01T10:43:50;14.20;;;9.23;;
7525;SDS011;3804;50.860;6.208;2023-03-01T10:46:33;17.13;;;8.87;;
7525;SDS011;3804;50.860;6.208;2023-03-01T10:51:40;16.03;;;10.23;;
7525;SDS011;3804;50.860;6.208;2023-03-01T10:54:21;13.83;;;9.20;;
7525;SDS011;3804;50.860;6.208;2023-03-01T10:56:51;11.87;;;8.33;;
7525;SDS011;3804;50.860;6.208;2023-03-01T10:59:25;11.30;;;8.47;;
7525;SDS011;3804;50.860;6.208;2023-03-01T11:07:23;13.47;;;7.70;;
7525;SDS011;3804;50.860;6.208;2023-03-01T11:09:50;12.73;;;9.07;;
7525;SDS011;3804;50.860;6.208;2023-03-01T11:12:17;15.17;;;10.40;;
7525;SDS011;3804;50.860;6.208;2023-03-01T11:14:51;13.07;;;8.27;;
7525;SDS011;3804;50.860;6.208;2023-03-01T11:22:51;13.07;;;8.87;;
7525;SDS011;3804;50.860;6.208;2023-03-01T11:25:24;14.33;;;9.60;;
7525;SDS011;3804;50.860;6.208;2023-03-01T11:27:51;12.83;;;9.50;;
7525;SDS011;3804;50.860;6.208;2023-03-01T11:30:28;16.70;;;10.57;;
7525;SDS011;3804;50.860;6.208;2023-03-01T11:33:08;15.27;;;9.93;;
7525;SDS011;3804;50.860;6.208;2023-03-01T11:35:41;13.10;;;9.57;;
7525;SDS011;3804;50.860;6.208;2023-03-01T11:38:15;13.57;;;9.80;;
7525;SDS011;3804;50.860;6.208;2023-03-01T11:43:31;12.43;;;9.10;;
7525;SDS011;3804;50.860;6.208;2023-03-01T11:49:08;13.77;;;10.60;;
7525;SDS011;3804;50.860;6.208;2023-03-01T11:54:20;13.90;;;8.57;;
7525;SDS011;3804;50.860;6.208;2023-03-01T11:56:51;13.27;;;8.00;;
7525;SDS011;3804;50.860;6.208;2023-03-01T12:07:25;13.57;;;9.43;;
7525;SDS011;3804;50.860;6.208;2023-03-01T12:15:32;16.03;;;10.60;;
7525;SDS011;3804;50.860;6.208;2023-03-01T12:18:15;17.13;;;10.60;;
7525;SDS011;3804;50.860;6.208;2023-03-01T12:23:16;15.00;;;9.57;;
7525;SDS011;3804;50.860;6.208;2023-03-01T12:28:28;12.83;;;8.83;;
7525;SDS011;3804;50.860;6.208;2023-03-01T12:31:09;13.60;;;9.17;;
7525;SDS011;3804;50.860;6.208;2023-03-01T12:33:42;15.37;;;9.47;;
7525;SDS011;3804;50.860;6.208;2023-03-01T12:36:19;14.23;;;9.70;;
7525;SDS011;3804;50.860;6.208;2023-03-01T12:38:50;14.53;;;9.07;;
7525;SDS011;3804;50.860;6.208;2023-03-01T12:48:55;12.60;;;8.30;;
7525;SDS011;3804;50.860;6.208;2023-03-01T12:51:26;11.67;;;7.60;;
7525;SDS011;3804;50.860;6.208;2023-03-01T12:53:55;12.43;;;8.33;;
7525;SDS011;3804;50.860;6.208;2023-03-01T12:56:24;14.07;;;7.23;;
7525;SDS011;3804;50.860;6.208;2023-03-01T12:58:55;12.63;;;9.13;;
7525;SDS011;3804;50.860;6.208;2023-03-01T13:01:27;11.30;;;6.77;;
7525;SDS011;3804;50.860;6.208;2023-03-01T13:04:12;10.97;;;8.30;;
7525;SDS011;3804;50.860;6.208;2023-03-01T13:06:57;12.50;;;8.87;;
7525;SDS011;3804;50.860;6.208;2023-03-01T13:09:30;12.10;;;8.70;;
7525;SDS011;3804;50.860;6.208;2023-03-01T13:12:00;10.77;;;8.40;;
7525;SDS011;3804;50.860;6.208;2023-03-01T13:14:35;11.03;;;7.07;;
7525;SDS011;3804;50.860;6.208;2023-03-01T13:17:02;12.87;;;9.10;;
7525;SDS011;3804;50.860;6.208;2023-03-01T13:19:28;14.13;;;8.47;;
7525;SDS011;3804;50.860;6.208;2023-03-01T13:21:56;10.53;;;7.37;;
7525;SDS011;3804;50.860;6.208;2023-03-01T13:24:37;8.20;;;6.53;;
7525;SDS011;3804;50.860;6.208;2023-03-01T13:32:24;14.73;;;9.17;;
7525;SDS011;3804;50.860;6.208;2023-03-01T13:37:46;12.43;;;7.90;;
7525;SDS011;3804;50.860;6.208;2023-03-01T13:42:49;11.73;;;7.37;;
7525;SDS011;3804;50.860;6.208;2023-03-01T13:45:38;8.30;;;6.73;;
7525;SDS011;3804;50.860;6.208;2023-03-01T13:48:15;13.77;;;8.60;;
7525;SDS011;3804;50.860;6.208;2023-03-01T13:50:46;10.23;;;6.87;;
7525;SDS011;3804;50.860;6.208;2023-03-01T13:53:16;10.83;;;7.77;;
7525;SDS011;3804;50.860;6.208;2023-03-01T13:58:18;11.23;;;8.90;;
7525;SDS011;3804;50.860;6.208;2023-03-01T14:00:46;9.23;;;7.47;;
7525;SDS011;3804;50.860;6.208;2023-03-01T14:03:18;12.53;;;7.87;;
7525;SDS011;3804;50.860;6.208;2023-03-01T14:05:57;13.67;;;7.33;;
7525;SDS011;3804;50.860;6.208;2023-03-01T14:08:38;15.57;;;7.53;;
7525;SDS011;3804;50.860;6.208;2023-03-01T14:11:20;13.90;;;7.60;;
7525;SDS011;3804;50.860;6.208;2023-03-01T14:19:12;14.30;;;7.03;;
7525;SDS011;3804;50.860;6.208;2023-03-01T14:24:30;9.90;;;7.83;;
7525;SDS011;3804;50.860;6.208;2023-03-01T14:27:00;12.37;;;8.20;;
7525;SDS011;3804;50.860;6.208;2023-03-01T14:29:33;10.80;;;6.60;;
7525;SDS011;3804;50.860;6.208;2023-03-01T14:32:10;9.23;;;6.87;;
7525;SDS011;3804;50.860;6.208;2023-03-01T14:34:42;10.87;;;7.53;;
7525;SDS011;3804;50.860;6.208;2023-03-01T14:37:25;9.13;;;6.63;;
7525;SDS011;3804;50.860;6.208;2023-03-01T14:39:52;9.20;;;6.80;;
7525;SDS011;3804;50.860;6.208;2023-03-01T14:42:20;11.50;;;7.07;;
7525;SDS011;3804;50.860;6.208;2023-03-01T14:44:49;10.80;;;6.17;;
7525;SDS011;3804;50.860;6.208;2023-03-01T14:47:37;10.80;;;7.67;;
7525;SDS011;3804;50.860;6.208;2023-03-01T14:50:19;11.30;;;7.63;;
7525;SDS011;3804;50.860;6.208;2023-03-01T14:52:48;11.13;;;6.50;;
7525;SDS011;3804;50.860;6.208;2023-03-01T14:55:21;8.53;;;7.10;;
7525;SDS011;3804;50.860;6.208;2023-03-01T14:57:49;9.77;;;6.83;;
7525;SDS011;3804;50.860;6.208;2023-03-01T15:00:20;8.30;;;5.40;;
7525;SDS011;3804;50.860;6.208;2023-03-01T15:02:48;9.03;;;5.63;;
7525;SDS011;3804;50.860;6.208;2023-03-01T15:05:24;11.80;;;6.80;;
7525;SDS011;3804;50.860;6.208;2023-03-01T15:07:51;9.60;;;6.77;;
7525;SDS011;3804;50.860;6.208;2023-03-01T15:10:22;9.30;;;6.30;;
7525;SDS011;3804;50.860;6.208;2023-03-01T15:12:50;10.23;;;7.00;;
7525;SDS011;3804;50.860;6.208;2023-03-01T15:15:26;7.53;;;5.97;;
7525;SDS011;3804;50.860;6.208;2023-03-01T15:17:57;9.57;;;6.63;;
7525;SDS011;3804;50.860;6.208;2023-03-01T15:20:25;9.90;;;6.63;;
7525;SDS011;3804;50.860;6.208;2023-03-01T15:22:53;9.33;;;6.70;;
7525;SDS011;3804;50.860;6.208;2023-03-01T15:25:22;10.00;;;6.90;;
7525;SDS011;3804;50.860;6.208;2023-03-01T15:27:50;9.90;;;6.30;;
7525;SDS011;3804;50.860;6.208;2023-03-01T15:30:25;9.70;;;6.50;;
7525;SDS011;3804;50.860;6.208;2023-03-01T15:35:51;10.93;;;7.03;;
7525;SDS011;3804;50.860;6.208;2023-03-01T15:40:51;7.50;;;6.07;;
7525;SDS011;3804;50.860;6.208;2023-03-01T15:46:04;8.60;;;6.50;;
7525;SDS011;3804;50.860;6.208;2023-03-01T15:48:31;10.97;;;7.10;;
7525;SDS011;3804;50.860;6.208;2023-03-01T15:50:58;8.53;;;6.77;;
7525;SDS011;3804;50.860;6.208;2023-03-01T15:53:25;10.60;;;7.00;;
7525;SDS011;3804;50.860;6.208;2023-03-01T15:55:53;7.77;;;6.07;;
7525;SDS011;3804;50.860;6.208;2023-03-01T15:58:23;9.13;;;6.33;;
7525;SDS011;3804;50.860;6.208;2023-03-01T16:00:51;10.13;;;6.93;;
7525;SDS011;3804;50.860;6.208;2023-03-01T16:03:27;7.80;;;5.43;;
7525;SDS011;3804;50.860;6.208;2023-03-01T16:05:54;11.43;;;7.53;;
7525;SDS011;3804;50.860;6.208;2023-03-01T16:08:21;10.30;;;7.03;;
7525;SDS011;3804;50.860;6.208;2023-03-01T16:10:48;10.50;;;6.90;;
7525;SDS011;3804;50.860;6.208;2023-03-01T16:13:16;9.67;;;6.93;;
7525;SDS011;3804;50.860;6.208;2023-03-01T16:15:43;9.70;;;6.37;;
7525;SDS011;3804;50.860;6.208;2023-03-01T16:18:10;9.33;;;5.90;;
7525;SDS011;3804;50.860;6.208;2023-03-01T16:20:38;11.50;;;6.13;;
7525;SDS011;3804;50.860;6.208;2023-03-01T16:23:07;10.90;;;6.20;;
7525;SDS011;3804;50.860;6.208;2023-03-01T16:25:34;12.50;;;6.87;;
7525;SDS011;3804;50.860;6.208;2023-03-01T16:28:01;13.10;;;8.03;;
7525;SDS011;3804;50.860;6.208;2023-03-01T16:30:31;13.30;;;9.57;;
7525;SDS011;3804;50.860;6.208;2023-03-01T16:32:58;10.90;;;7.00;;
7525;SDS011;3804;50.860;6.208;2023-03-01T16:35:25;13.67;;;7.23;;
7525;SDS011;3804;50.860;6.208;2023-03-01T16:37:52;11.50;;;7.30;;
7525;SDS011;3804;50.860;6.208;2023-03-01T16:42:47;27.73;;;16.80;;
7525;SDS011;3804;50.860;6.208;2023-03-01T16:45:14;12.70;;;8.13;;
7525;SDS011;3804;50.860;6.208;2023-03-01T16:47:50;10.33;;;6.70;;